Bill Berry (bbr) — WDB8998 — position and weather

sailwx.info

Track history (hours):
 
Tides and Currents Weather Stations Pressure Air Temp Water Temp Dewpoint Dewpoint Depression Visibility Wind Speed Wind Dir Waves Ship Positions

Bill Berry (bbr)

Owner: INGRAM BARGE COMPANY, Nashville, TN. More information available from US FCC via Universal Licensing System and Coast Guard Vessel Documentation Center.

Last reported at 2015-May-18 11:30 UTC. Time now 2015-May-23 14:53 UTC.
Position N 39°06' W 084°49'.

Length 41 m; draft 3.5 m.

Type: Towing. MMSI: 366967630.

Date/timePositionNaut miles runAvg speedWind from/ knotsBaromVisibWave heightAir tempDewpointWater temp
2015-May-18 11:30N 39°06' W 084°49'5 5.6
2015-May-18 10:33N 39°07' W 084°42'6 6.5
2015-May-18 09:33N 39°05' W 084°34'6 5.8
2015-May-18 08:33N 39°07' W 084°28'6 5.8
2015-May-18 07:32N 39°03' W 084°23'6 6.6
2015-May-18 06:33N 38°58' W 084°18'7 7.0
2015-May-18 05:33N 38°51' W 084°14'5 4.1
2015-May-18 04:27N 38°48' W 084°10'33 0.8
2015-May-16 10:04N 38°41' W 083°29'14 1.9
2015-May-16 02:27N 38°42' W 083°47'5 5.2
2015-May-16 01:32N 38°45' W 083°52'11 5.6
2015-May-15 23:34N 38°46' W 084°06'4 3.6
2015-May-15 22:26N 38°48' W 084°11'2 2.7
2015-May-15 21:33N 38°49' W 084°13'5 4.9
2015-May-15 20:33N 38°53' W 084°14'5 4.9
2015-May-15 19:33N 38°58' W 084°18'5 4.7
2015-May-15 18:33N 39°02' W 084°20'5 4.8
2015-May-15 17:33N 39°04' W 084°26'4 4.0
2015-May-15 16:33N 39°07' W 084°29'3 2.7
2015-May-15 15:33N 39°06' W 084°32'5 4.5
2015-May-15 14:33N 39°04' W 084°37'5 5.0
2015-May-15 13:33N 39°07' W 084°43'4 4.0
2015-May-15 12:26N 39°07' W 084°48'5 5.0
2015-May-15 11:21N 39°03' W 084°54'4 5.4
2015-May-15 10:32N 38°60' W 084°50'  
Track history (hours):
 
Tides and Currents Weather Stations Pressure Air Temp Water Temp Dewpoint Dewpoint Depression Visibility Wind Speed Wind Dir Waves Ship Positions

Bill Berry (bbr)

Owner: INGRAM BARGE COMPANY, Nashville, TN. More information available from US FCC via Universal Licensing System and Coast Guard Vessel Documentation Center.

Last reported at 2015-May-18 11:30 UTC. Time now 2015-May-23 14:53 UTC.
Position N 39°06' W 084°49'.

Length 41 m; draft 3.5 m.

Type: Towing. MMSI: 366967630.

Date/timePositionNaut miles runAvg speedWind from/ knotsBaromVisibWave heightAir tempDewpointWater temp
2015-May-18 11:30N 39°06' W 084°49'5 5.6
2015-May-18 10:33N 39°07' W 084°42'6 6.5
2015-May-18 09:33N 39°05' W 084°34'6 5.8
2015-May-18 08:33N 39°07' W 084°28'6 5.8
2015-May-18 07:32N 39°03' W 084°23'6 6.6
2015-May-18 06:33N 38°58' W 084°18'7 7.0
2015-May-18 05:33N 38°51' W 084°14'5 4.1
2015-May-18 04:27N 38°48' W 084°10'33 0.8
2015-May-16 10:04N 38°41' W 083°29'14 1.9
2015-May-16 02:27N 38°42' W 083°47'5 5.2
2015-May-16 01:32N 38°45' W 083°52'11 5.6
2015-May-15 23:34N 38°46' W 084°06'4 3.6
2015-May-15 22:26N 38°48' W 084°11'2 2.7
2015-May-15 21:33N 38°49' W 084°13'5 4.9
2015-May-15 20:33N 38°53' W 084°14'5 4.9
2015-May-15 19:33N 38°58' W 084°18'5 4.7
2015-May-15 18:33N 39°02' W 084°20'5 4.8
2015-May-15 17:33N 39°04' W 084°26'4 4.0
2015-May-15 16:33N 39°07' W 084°29'3 2.7
2015-May-15 15:33N 39°06' W 084°32'5 4.5
2015-May-15 14:33N 39°04' W 084°37'5 5.0
2015-May-15 13:33N 39°07' W 084°43'4 4.0
2015-May-15 12:26N 39°07' W 084°48'5 5.0
2015-May-15 11:21N 39°03' W 084°54'4 5.4
2015-May-15 10:32N 38°60' W 084°50'  

Dump ship's entire track history